createdAt,value
2023-04-13T00:00:56.463Z,9.60
2023-04-13T00:03:26.012Z,9.60
2023-04-13T00:05:55.081Z,9.59
2023-04-13T00:08:24.680Z,9.61
2023-04-13T00:10:57.554Z,9.62
2023-04-13T00:13:26.752Z,9.62
2023-04-13T00:15:57.357Z,9.63
2023-04-13T00:18:25.827Z,9.64
2023-04-13T00:20:54.804Z,9.64
2023-04-13T00:23:23.336Z,9.66
2023-04-13T00:25:56.581Z,9.68
2023-04-13T00:28:25.764Z,9.68
2023-04-13T00:30:55.210Z,9.70
2023-04-13T00:33:24.223Z,9.70
2023-04-13T00:35:52.740Z,9.71
2023-04-13T00:38:21.323Z,9.72
2023-04-13T00:40:55.940Z,9.73
2023-04-13T00:43:25.695Z,9.74
2023-04-13T00:45:54.602Z,9.74
2023-04-13T00:48:27.396Z,9.74
2023-04-13T00:50:56.238Z,9.75
2023-04-13T00:53:24.736Z,9.76
2023-04-13T00:55:53.584Z,9.76
2023-04-13T00:58:22.563Z,9.77
2023-04-13T01:00:51.246Z,9.76
2023-04-13T01:03:21.796Z,9.76
2023-04-13T01:06:18.067Z,9.77
2023-04-13T01:08:54.176Z,9.77
2023-04-13T01:11:28.074Z,9.77
2023-04-13T01:14:24.927Z,9.77
2023-04-13T01:16:59.300Z,9.76
2023-04-13T01:19:27.725Z,9.76
2023-04-13T01:21:58.159Z,9.77
2023-04-13T01:24:40.861Z,9.77
2023-04-13T01:27:20.843Z,9.77
2023-04-13T01:29:49.624Z,9.75
2023-04-13T01:32:19.022Z,9.73
2023-04-13T01:34:47.844Z,9.71
2023-04-13T01:37:17.710Z,9.70
2023-04-13T01:39:49.365Z,9.71
2023-04-13T01:42:32.895Z,9.70
2023-04-13T01:45:05.813Z,9.69
2023-04-13T01:47:34.279Z,9.68
2023-04-13T01:50:13.629Z,9.68
2023-04-13T01:53:11.468Z,9.68
2023-04-13T01:55:44.195Z,9.68
2023-04-13T01:58:14.878Z,9.66
2023-04-13T02:00:47.149Z,9.66
2023-04-13T02:03:16.765Z,9.65
2023-04-13T02:05:46.324Z,9.65
2023-04-13T02:08:15.926Z,9.67
2023-04-13T02:10:47.477Z,9.67
2023-04-13T02:13:17.174Z,9.68
2023-04-13T02:15:47.054Z,9.68
2023-04-13T02:18:16.444Z,9.68
2023-04-13T02:20:44.955Z,9.68
2023-04-13T02:23:18.263Z,9.67
2023-04-13T02:25:48.186Z,9.66
2023-04-13T02:28:20.858Z,9.65
2023-04-13T02:30:57.593Z,9.64
2023-04-13T02:33:32.114Z,9.62
2023-04-13T02:36:02.848Z,9.60
2023-04-13T02:38:37.578Z,9.59
2023-04-13T02:41:26.642Z,9.58
2023-04-13T02:43:56.087Z,9.58
2023-04-13T02:46:25.800Z,9.57
2023-04-13T02:49:06.025Z,9.53
2023-04-13T02:51:40.062Z,9.53
2023-04-13T02:54:11.608Z,9.53
2023-04-13T02:56:44.268Z,9.52
2023-04-13T02:59:12.734Z,9.52
2023-04-13T03:01:46.218Z,9.50
2023-04-13T03:04:17.512Z,9.49
2023-04-13T03:06:46.286Z,9.48
2023-04-13T03:09:16.409Z,9.48
2023-04-13T03:11:52.969Z,9.46
2023-04-13T03:14:30.101Z,9.46
2023-04-13T03:17:04.567Z,9.45
2023-04-13T03:19:39.722Z,9.44
2023-04-13T03:22:08.705Z,9.43
2023-04-13T03:24:41.894Z,9.43
2023-04-13T03:27:11.841Z,9.44
2023-04-13T03:29:46.021Z,9.46
2023-04-13T03:32:23.542Z,9.47
2023-04-13T03:34:58.929Z,9.49
2023-04-13T03:37:30.565Z,9.49
2023-04-13T03:40:02.170Z,9.50
2023-04-13T03:42:33.378Z,9.48
2023-04-13T03:45:03.144Z,9.48
2023-04-13T03:47:33.216Z,9.47
2023-04-13T03:50:02.231Z,9.46
2023-04-13T03:52:35.732Z,9.42
2023-04-13T03:55:05.675Z,9.40
2023-04-13T03:57:37.817Z,9.37
2023-04-13T04:00:14.306Z,9.36
2023-04-13T04:02:57.861Z,9.34
2023-04-13T04:05:32.435Z,9.33
2023-04-13T04:08:03.925Z,9.32
2023-04-13T04:10:32.833Z,9.32
2023-04-13T04:13:01.981Z,9.32
2023-04-13T04:15:31.785Z,9.31
2023-04-13T04:18:04.685Z,9.30
2023-04-13T04:20:33.973Z,9.31
2023-04-13T04:23:05.032Z,9.30
2023-04-13T04:25:40.823Z,9.32
2023-04-13T04:28:10.031Z,9.33
2023-04-13T04:30:38.647Z,9.34
2023-04-13T04:33:10.920Z,9.35
2023-04-13T04:35:51.533Z,9.37
2023-04-13T04:38:26.528Z,9.38
2023-04-13T04:40:57.817Z,9.40
2023-04-13T04:43:27.528Z,9.40
2023-04-13T04:45:58.056Z,9.43
2023-04-13T04:48:27.413Z,9.44
2023-04-13T04:51:08.649Z,9.48
2023-04-13T04:53:37.213Z,9.51
2023-04-13T04:56:07.117Z,9.57
2023-04-13T04:58:44.678Z,9.59
2023-04-13T05:01:13.456Z,9.61
2023-04-13T05:03:42.977Z,9.64
2023-04-13T05:06:25.690Z,9.68
2023-04-13T05:08:57.093Z,9.72
2023-04-13T05:11:26.850Z,9.77
2023-04-13T05:13:58.614Z,9.82
2023-04-13T05:16:31.007Z,9.88
2023-04-13T05:19:05.673Z,9.94
2023-04-13T05:22:01.374Z,9.99
2023-04-13T05:24:33.724Z,10.04
2023-04-13T05:27:03.956Z,10.08
2023-04-13T05:29:35.614Z,10.12
2023-04-13T05:32:04.598Z,10.19
2023-04-13T05:34:36.042Z,10.25
2023-04-13T05:37:12.394Z,10.30
2023-04-13T05:39:41.494Z,10.37
2023-04-13T05:42:10.612Z,10.41
2023-04-13T05:44:43.052Z,10.45
2023-04-13T05:47:12.361Z,10.49
2023-04-13T05:49:41.451Z,10.52
2023-04-13T05:52:10.673Z,10.55
2023-04-13T05:54:46.560Z,10.58
2023-04-13T05:57:15.081Z,10.64
2023-04-13T05:59:47.152Z,10.69
2023-04-13T06:02:21.054Z,10.71
2023-04-13T06:04:54.123Z,10.73
2023-04-13T06:07:22.956Z,10.74
2023-04-13T06:09:51.947Z,10.76
2023-04-13T06:12:22.161Z,10.79
2023-04-13T06:14:50.734Z,10.82
2023-04-13T06:17:19.463Z,10.85
2023-04-13T06:19:48.211Z,10.86
2023-04-13T06:22:17.010Z,10.88
2023-04-13T06:24:45.680Z,10.89
2023-04-13T06:27:14.365Z,10.90
2023-04-13T06:29:45.917Z,10.94
2023-04-13T06:32:15.142Z,11.00
2023-04-13T06:34:46.053Z,11.09
2023-04-13T06:37:16.111Z,11.20
2023-04-13T06:39:48.268Z,11.30
2023-04-13T06:42:21.533Z,11.39
2023-04-13T06:45:16.539Z,11.47
2023-04-13T06:47:45.050Z,11.53
2023-04-13T06:50:18.935Z,11.60
2023-04-13T06:52:48.224Z,11.64
2023-04-13T06:55:17.659Z,11.68
2023-04-13T06:57:47.132Z,11.76
2023-04-13T07:00:28.780Z,11.81
2023-04-13T07:02:58.972Z,11.91
2023-04-13T07:05:28.020Z,12.00
2023-04-13T07:08:00.173Z,12.08
2023-04-13T07:10:29.107Z,12.15
2023-04-13T07:12:58.528Z,12.19
2023-04-13T07:15:29.762Z,12.26
2023-04-13T07:17:58.371Z,12.31
2023-04-13T07:20:29.701Z,12.34
2023-04-13T07:22:58.889Z,12.40
2023-04-13T07:25:27.358Z,12.46
2023-04-13T07:27:58.104Z,12.51
2023-04-13T07:30:27.707Z,12.55
2023-04-13T07:32:58.300Z,12.58
2023-04-13T07:35:28.451Z,12.59
2023-04-13T07:37:57.493Z,12.57
2023-04-13T07:40:26.848Z,12.56
2023-04-13T07:42:57.172Z,12.55
2023-04-13T07:45:31.162Z,12.53
2023-04-13T07:47:59.711Z,12.48
2023-04-13T07:50:28.451Z,12.45
2023-04-13T07:52:57.546Z,12.42
2023-04-13T07:55:27.026Z,12.40
2023-04-13T07:57:55.976Z,12.40
2023-04-13T08:00:25.143Z,12.40
2023-04-13T08:02:57.517Z,12.41
2023-04-13T08:05:31.925Z,12.43
2023-04-13T08:08:00.796Z,12.47
2023-04-13T08:10:30.406Z,12.49
2023-04-13T08:13:00.518Z,12.53
2023-04-13T08:15:29.460Z,12.59
2023-04-13T08:17:59.989Z,12.63
2023-04-13T08:20:30.348Z,12.64
2023-04-13T08:23:01.493Z,12.63
2023-04-13T08:25:30.071Z,12.63
2023-04-13T08:27:59.048Z,12.64
2023-04-13T08:30:33.389Z,12.63
2023-04-13T08:33:04.823Z,12.64
2023-04-13T08:35:34.431Z,12.64
2023-04-13T08:38:09.542Z,12.66
2023-04-13T08:40:41.236Z,12.69
2023-04-13T08:43:13.445Z,12.73
2023-04-13T08:45:45.243Z,12.79
2023-04-13T08:48:16.000Z,12.84
2023-04-13T08:50:44.738Z,12.91
2023-04-13T08:53:16.748Z,13.06
2023-04-13T08:55:48.716Z,13.20
2023-04-13T08:58:22.906Z,13.29
2023-04-13T09:00:56.677Z,13.36
2023-04-13T09:03:30.039Z,13.47
2023-04-13T09:06:01.850Z,13.59
2023-04-13T09:08:36.029Z,13.66
2023-04-13T09:11:06.441Z,13.68
2023-04-13T09:13:36.293Z,13.70
2023-04-13T09:16:05.384Z,13.71
2023-04-13T09:18:53.628Z,13.72
2023-04-13T09:21:37.452Z,13.73
2023-04-13T09:24:06.625Z,13.72
2023-04-13T09:26:45.404Z,13.74
2023-04-13T09:29:15.437Z,13.73
2023-04-13T09:31:47.546Z,13.68
2023-04-13T09:34:27.949Z,13.63
2023-04-13T09:36:58.639Z,13.63
2023-04-13T09:39:29.196Z,13.66
2023-04-13T09:41:58.858Z,13.64
2023-04-13T09:44:36.314Z,13.58
2023-04-13T09:47:07.138Z,13.47
2023-04-13T09:49:38.770Z,13.39
2023-04-13T09:52:25.228Z,13.36
2023-04-13T09:55:00.156Z,13.37
2023-04-13T09:57:30.406Z,13.33
2023-04-13T10:00:07.487Z,13.29
2023-04-13T10:02:43.299Z,13.26
2023-04-13T10:05:12.700Z,13.19
2023-04-13T10:07:44.810Z,13.13
2023-04-13T10:10:15.505Z,13.07
2023-04-13T10:12:47.192Z,13.01
2023-04-13T10:15:37.441Z,12.96
2023-04-13T10:18:33.802Z,12.92
2023-04-13T10:21:02.688Z,12.87
2023-04-13T10:23:32.442Z,12.82
2023-04-13T10:26:03.652Z,12.73
2023-04-13T10:28:45.000Z,12.66
2023-04-13T10:31:13.421Z,12.59
2023-04-13T10:33:51.622Z,12.53
2023-04-13T10:36:19.968Z,12.43
2023-04-13T10:38:49.164Z,12.34
2023-04-13T10:41:29.118Z,12.29
2023-04-13T10:44:07.760Z,12.29
2023-04-13T10:46:36.860Z,12.28
2023-04-13T10:49:05.531Z,12.26
2023-04-13T10:51:44.297Z,12.26
2023-04-13T10:54:14.174Z,12.23
2023-04-13T10:56:45.256Z,12.20
2023-04-13T10:59:13.982Z,12.21
2023-04-13T11:01:42.472Z,12.20
2023-04-13T11:04:15.147Z,12.18
2023-04-13T11:06:45.596Z,12.16
2023-04-13T11:09:17.137Z,12.12
2023-04-13T11:11:51.651Z,12.06
2023-04-13T11:14:26.088Z,12.02
2023-04-13T11:16:58.315Z,11.98
2023-04-13T11:19:27.259Z,11.92
2023-04-13T11:21:59.944Z,11.86
2023-04-13T11:24:34.294Z,11.81
2023-04-13T11:27:03.978Z,11.79
2023-04-13T11:29:34.298Z,11.79
2023-04-13T11:32:03.836Z,11.79
2023-04-13T11:34:33.295Z,11.82
2023-04-13T11:37:07.634Z,11.84
2023-04-13T11:39:36.927Z,11.87
2023-04-13T11:42:07.038Z,11.87
2023-04-13T11:44:38.176Z,11.87
2023-04-13T11:47:06.834Z,11.89
2023-04-13T11:49:48.236Z,11.90
2023-04-13T11:52:17.636Z,11.92
2023-04-13T11:54:46.115Z,11.96
2023-04-13T11:57:16.016Z,11.97
2023-04-13T11:59:47.939Z,11.98
2023-04-13T12:02:29.837Z,11.98
2023-04-13T12:04:59.046Z,11.97
2023-04-13T12:07:27.983Z,11.96
2023-04-13T12:09:59.455Z,11.92
2023-04-13T12:15:21.752Z,11.88
2023-04-13T12:17:57.863Z,11.88
2023-04-13T12:20:44.553Z,11.89
2023-04-13T12:23:23.081Z,11.93
2023-04-13T12:25:56.222Z,12.01
2023-04-13T12:28:37.849Z,12.07
2023-04-13T12:31:10.262Z,12.10
2023-04-13T12:33:39.923Z,12.12
2023-04-13T12:36:11.437Z,12.13
2023-04-13T12:38:40.158Z,12.13
2023-04-13T12:41:10.279Z,12.11
2023-04-13T12:43:38.967Z,12.11
2023-04-13T12:46:07.857Z,12.12
2023-04-13T12:48:36.510Z,12.11
2023-04-13T12:51:10.123Z,12.10
2023-04-13T12:53:39.139Z,12.11
2023-04-13T12:56:08.132Z,12.12
2023-04-13T12:58:37.638Z,12.13
2023-04-13T13:01:07.078Z,12.11
2023-04-13T13:03:39.275Z,12.09
2023-04-13T13:06:09.000Z,12.10
2023-04-13T13:08:39.895Z,12.09
2023-04-13T13:11:09.103Z,12.07
2023-04-13T13:13:37.999Z,12.04
2023-04-13T13:16:06.892Z,12.01
2023-04-13T13:18:49.899Z,11.98
2023-04-13T13:21:19.608Z,11.93
2023-04-13T13:23:48.236Z,11.86
2023-04-13T13:28:51.025Z,11.76
2023-04-13T13:31:19.961Z,11.76
2023-04-13T13:33:49.259Z,11.75
2023-04-13T13:36:20.593Z,11.71
2023-04-13T13:38:49.122Z,11.66
2023-04-13T13:41:20.178Z,11.62
2023-04-13T13:43:48.699Z,11.58
2023-04-13T13:46:18.621Z,11.54
2023-04-13T13:48:47.621Z,11.51
2023-04-13T13:51:42.931Z,11.48
2023-04-13T13:54:12.638Z,11.46
2023-04-13T13:56:41.102Z,11.45
2023-04-13T13:59:10.209Z,11.44
2023-04-13T14:01:39.598Z,11.41
2023-04-13T14:04:08.269Z,11.37
2023-04-13T14:06:38.485Z,11.35
2023-04-13T14:09:09.153Z,11.32
2023-04-13T14:11:37.724Z,11.29
2023-04-13T14:14:18.334Z,11.28
2023-04-13T14:16:49.848Z,11.28
2023-04-13T14:19:20.268Z,11.26
2023-04-13T14:21:49.570Z,11.24
2023-04-13T14:24:18.759Z,11.21
2023-04-13T14:26:47.350Z,11.19
2023-04-13T14:29:15.884Z,11.18
2023-04-13T14:31:44.586Z,11.14
2023-04-13T14:34:13.278Z,11.11
2023-04-13T14:36:42.529Z,11.07
2023-04-13T14:39:17.057Z,11.04
2023-04-13T14:41:46.352Z,11.01
2023-04-13T14:44:14.816Z,10.99
2023-04-13T14:46:44.882Z,10.97
2023-04-13T14:49:13.409Z,10.99
2023-04-13T14:51:42.156Z,11.00
2023-04-13T14:54:14.956Z,11.02
2023-04-13T14:56:44.585Z,11.00
2023-04-13T14:59:13.277Z,10.97
2023-04-13T15:01:42.525Z,10.93
2023-04-13T15:04:12.447Z,10.90
2023-04-13T15:06:41.381Z,10.86
2023-04-13T15:09:10.902Z,10.79
2023-04-13T15:11:41.210Z,10.72
2023-04-13T15:14:09.865Z,10.66
2023-04-13T15:16:38.529Z,10.59
2023-04-13T15:19:07.174Z,10.54
2023-04-13T15:21:38.620Z,10.49
2023-04-13T15:24:08.757Z,10.44
2023-04-13T15:26:41.184Z,10.40
2023-04-13T15:29:11.579Z,10.37
2023-04-13T15:31:41.073Z,10.36
2023-04-13T15:34:09.756Z,10.32
2023-04-13T15:36:38.625Z,10.29
2023-04-13T15:39:07.247Z,10.26
2023-04-13T15:41:36.091Z,10.23
2023-04-13T15:44:04.681Z,10.21
2023-04-13T15:46:33.603Z,10.20
2023-04-13T15:49:02.784Z,10.18
2023-04-13T15:51:32.437Z,10.17
2023-04-13T15:54:01.607Z,10.18
2023-04-13T15:56:30.561Z,10.18
2023-04-13T15:58:59.201Z,10.17
2023-04-13T16:01:28.265Z,10.15
2023-04-13T16:03:57.982Z,10.14
2023-04-13T16:06:27.767Z,10.14
2023-04-13T16:09:01.026Z,10.13
2023-04-13T16:11:31.840Z,10.12
2023-04-13T16:14:07.469Z,10.12
2023-04-13T16:16:47.028Z,10.12
2023-04-13T16:19:18.585Z,10.11
2023-04-13T16:21:47.449Z,10.09
2023-04-13T16:24:17.380Z,10.08
2023-04-13T16:26:46.367Z,10.05
2023-04-13T16:29:14.942Z,10.04
2023-04-13T16:31:46.803Z,10.03
2023-04-13T16:34:25.722Z,10.02
2023-04-13T16:36:56.385Z,9.99
2023-04-13T16:39:25.144Z,9.98
2023-04-13T16:41:53.941Z,9.97
2023-04-13T16:44:22.523Z,9.97
2023-04-13T16:46:58.663Z,9.95
2023-04-13T16:49:28.198Z,9.95
2023-04-13T16:51:56.691Z,9.93
2023-04-13T16:54:27.987Z,9.92
2023-04-13T16:56:56.498Z,9.91
2023-04-13T16:59:25.175Z,9.90
2023-04-13T17:01:54.040Z,9.89
2023-04-13T17:04:22.683Z,9.87
2023-04-13T17:06:51.213Z,9.85
2023-04-13T17:09:19.699Z,9.84
2023-04-13T17:11:48.588Z,9.84
2023-04-13T17:14:17.676Z,9.84
2023-04-13T17:16:46.392Z,9.84
2023-04-13T17:19:15.989Z,9.84
2023-04-13T17:21:45.852Z,9.86
2023-04-13T17:24:14.477Z,9.87
2023-04-13T17:26:43.107Z,9.86
2023-04-13T17:29:11.987Z,9.84
2023-04-13T17:31:40.775Z,9.84
2023-04-13T17:34:09.747Z,9.84
2023-04-13T17:36:38.944Z,9.84
2023-04-13T17:39:08.604Z,9.84
2023-04-13T17:41:37.806Z,9.84
2023-04-13T17:44:06.788Z,9.83
2023-04-13T17:46:35.632Z,9.82
2023-04-13T17:49:04.222Z,9.81
2023-04-13T17:51:34.316Z,9.78
2023-04-13T17:54:07.863Z,9.77
2023-04-13T17:56:37.825Z,9.75
2023-04-13T17:59:06.239Z,9.73
2023-04-13T18:01:34.922Z,9.72
2023-04-13T18:04:07.030Z,9.71
2023-04-13T18:06:36.339Z,9.70
2023-04-13T18:09:05.168Z,9.71
2023-04-13T18:11:33.962Z,9.72
2023-04-13T18:14:03.201Z,9.71
2023-04-13T18:16:32.069Z,9.72
2023-04-13T18:19:01.475Z,9.74
2023-04-13T18:21:32.826Z,9.72
2023-04-13T18:24:02.204Z,9.74
2023-04-13T18:26:31.119Z,9.74
2023-04-13T18:29:00.898Z,9.72
2023-04-13T18:31:29.305Z,9.73
2023-04-13T18:33:58.607Z,9.73
2023-04-13T18:36:28.082Z,9.73
2023-04-13T18:38:58.265Z,9.74
2023-04-13T18:41:26.993Z,9.73
2023-04-13T18:43:57.603Z,9.73
2023-04-13T18:46:26.980Z,9.73
2023-04-13T18:48:55.445Z,9.71
2023-04-13T18:51:28.404Z,9.70
2023-04-13T18:53:57.457Z,9.70
2023-04-13T18:56:26.477Z,9.69
2023-04-13T18:58:56.216Z,9.69
2023-04-13T19:01:25.008Z,9.69
2023-04-13T19:03:54.011Z,9.69
2023-04-13T19:06:29.138Z,9.69
2023-04-13T19:08:57.895Z,9.69
2023-04-13T19:11:27.913Z,9.69
2023-04-13T19:13:57.020Z,9.66
2023-04-13T19:16:29.060Z,9.64
2023-04-13T19:18:59.906Z,9.63
2023-04-13T19:21:28.849Z,9.63
2023-04-13T19:24:01.211Z,9.63
2023-04-13T19:26:31.499Z,9.62
2023-04-13T19:29:01.205Z,9.61
2023-04-13T19:31:30.082Z,9.60
2023-04-13T19:33:58.841Z,9.60
2023-04-13T19:36:27.979Z,9.59
2023-04-13T19:38:56.792Z,9.59
2023-04-13T19:41:26.089Z,9.59
2023-04-13T19:43:54.752Z,9.59
2023-04-13T19:46:23.293Z,9.58
2023-04-13T19:48:52.133Z,9.58
2023-04-13T19:51:20.810Z,9.58
2023-04-13T19:53:49.612Z,9.57
2023-04-13T19:56:18.293Z,9.58
2023-04-13T19:58:47.384Z,9.59
2023-04-13T20:01:17.281Z,9.57
2023-04-13T20:03:48.696Z,9.57
2023-04-13T20:06:18.454Z,9.55
2023-04-13T20:08:46.942Z,9.53
2023-04-13T20:11:17.418Z,9.55
2023-04-13T20:13:47.481Z,9.56
2023-04-13T20:16:16.476Z,9.56
2023-04-13T20:18:46.128Z,9.56
2023-04-13T20:21:14.791Z,9.56
2023-04-13T20:23:43.606Z,9.56
2023-04-13T20:26:12.498Z,9.55
2023-04-13T20:28:41.031Z,9.53
2023-04-13T20:31:09.573Z,9.52
2023-04-13T20:33:38.650Z,9.51
2023-04-13T20:36:07.476Z,9.51
2023-04-13T20:38:36.673Z,9.52
2023-04-13T20:41:05.200Z,9.52
2023-04-13T20:43:33.663Z,9.52
2023-04-13T20:46:02.253Z,9.50
2023-04-13T20:51:08.073Z,9.48
2023-04-13T20:53:39.642Z,9.47
2023-04-13T20:56:09.081Z,9.49
2023-04-13T20:58:38.275Z,9.48
2023-04-13T21:04:00.772Z,9.48
2023-04-13T21:06:30.293Z,9.48
2023-04-13T21:08:59.803Z,9.47
2023-04-13T21:11:28.567Z,9.49
2023-04-13T21:13:57.145Z,9.50
2023-04-13T21:16:26.266Z,9.51
2023-04-13T21:18:57.267Z,9.53
2023-04-13T21:21:27.783Z,9.52
2023-04-13T21:23:57.159Z,9.52
2023-04-13T21:26:26.093Z,9.57
2023-04-13T21:28:55.287Z,9.57
2023-04-13T21:31:24.078Z,9.59
2023-04-13T21:33:55.181Z,9.60
2023-04-13T21:38:55.043Z,9.62
2023-04-13T21:41:23.461Z,9.63
2023-04-13T21:43:51.931Z,9.63
2023-04-13T21:46:20.829Z,9.63
2023-04-13T21:48:49.799Z,9.62
2023-04-13T21:51:18.374Z,9.62
2023-04-13T21:53:47.262Z,9.62
2023-04-13T21:56:15.785Z,9.62
2023-04-13T21:58:48.423Z,9.62
2023-04-13T22:01:17.354Z,9.62
2023-04-13T22:03:48.120Z,9.63
2023-04-13T22:06:16.850Z,9.64
2023-04-13T22:08:49.072Z,9.63
2023-04-13T22:11:17.791Z,9.63
2023-04-13T22:13:46.381Z,9.63
2023-04-13T22:16:15.229Z,9.64
2023-04-13T22:18:45.037Z,9.63
2023-04-13T22:21:13.462Z,9.62
2023-04-13T22:23:43.786Z,9.61
2023-04-13T22:26:12.678Z,9.64
2023-04-13T22:28:41.392Z,9.65
2023-04-13T22:31:13.280Z,9.64
2023-04-13T22:33:42.327Z,9.64
2023-04-13T22:36:20.853Z,9.65
2023-04-13T22:38:53.007Z,9.67
2023-04-13T22:41:21.383Z,9.68
2023-04-13T22:43:49.932Z,9.68
2023-04-13T22:46:18.873Z,9.70
2023-04-13T22:48:48.711Z,9.71
2023-04-13T22:51:17.149Z,9.72
2023-04-13T22:53:49.188Z,9.72
2023-04-13T22:56:18.009Z,9.72
2023-04-13T22:58:47.422Z,9.73
2023-04-13T23:01:16.493Z,9.73
2023-04-13T23:03:45.790Z,9.76
2023-04-13T23:06:14.590Z,9.78
2023-04-13T23:08:47.486Z,9.80
2023-04-13T23:11:17.843Z,9.80
2023-04-13T23:13:47.041Z,9.82
2023-04-13T23:16:20.753Z,9.82
2023-04-13T23:18:54.046Z,9.84
2023-04-13T23:21:22.793Z,9.86
2023-04-13T23:23:51.449Z,9.85
2023-04-13T23:26:19.961Z,9.86
2023-04-13T23:28:48.384Z,9.86
2023-04-13T23:31:21.743Z,9.87
2023-04-13T23:33:50.214Z,9.88
2023-04-13T23:36:18.889Z,9.89
2023-04-13T23:38:50.857Z,9.90
2023-04-13T23:41:19.239Z,9.90
2023-04-13T23:43:48.070Z,9.91
2023-04-13T23:46:17.580Z,9.91
2023-04-13T23:48:46.331Z,9.90
2023-04-13T23:51:14.904Z,9.90
2023-04-13T23:53:44.404Z,9.90
2023-04-13T23:56:12.984Z,9.91
2023-04-13T23:58:41.881Z,9.90
